EA5WO Weather Reports


Display with metric or nautical units.
time (UTC)temp
F
wind
direction
speed
MPH
gust
MPH
rain 1hr
in
rain 24hr
in
rain mn
in
humidity
%
barometer
mb
20220118105558 54 22 1.0 4.0 0.00 0.00 0.00 40 1025.1
20220118104657 53 23 1.0 4.0 0.00 0.00 0.00 42 1025.2
20220118103757 52 23 1.0 4.0 0.00 0.00 0.00 43 1025.3
20220118102859 51 23 2.0 4.0 0.00 0.00 0.00 44 1025.3
20220118101959 50 12 2.0 4.0 0.00 0.00 0.00 46 1025.3
20220118101058 49 1 1.0 4.0 0.00 0.00 0.00 46 1025.5
20220118100157 49 1 1.0 2.0 0.00 0.00 0.00 48 1025.4
20220118095259 48 1 1.0 2.0 0.00 0.00 0.00 50 1025.5
20220118094359 48 1 1.0 2.0 0.00 0.00 0.00 50 1025.3
20220118093457 47 1 1.0 4.0 0.00 0.00 0.00 49 1025.3
20220118092557 46 1 1.0 4.0 0.00 0.00 0.00 51 1025.4
20220118091657 46 1 1.0 2.0 0.00 0.00 0.00 52 1025.0
20220118090757 46 1 1.0 2.0 0.00 0.00 0.00 51 1025.3
20220118085857 45 1 1.0 2.0 0.00 0.00 0.00 53 1025.1
20220118084957 44 1 0.0 2.0 0.00 0.00 0.00 52 1025.1
20220118084057 44 1 1.0 2.0 0.00 0.00 0.00 57 1024.9
20220118083157 42 1 1.0 2.0 0.00 0.00 0.00 56 1024.9
20220118082257 42 349 1.0 2.0 0.00 0.00 0.00 58 1024.7
20220118081357 41 337 1.0 4.0 0.00 0.00 0.00 60 1024.7
20220118080459 39 352 1.0 4.0 0.00 0.00 0.00 63 1024.6
20220118075557 38 356 1.0 2.0 0.00 0.00 0.00 65 1024.6
20220118074657 38 345 2.0 6.0 0.00 0.00 0.00 66 1024.6
20220118073757 37 348 2.0 6.0 0.00 0.00 0.00 66 1024.5
20220118072857 38 1 1.0 4.0 0.00 0.00 0.00 67 1024.5
20220118071957 37 348 1.0 2.0 0.00 0.00 0.00 67 1024.5
20220118071057 37 358 1.0 4.0 0.00 0.00 0.00 68 1024.2
20220118070157 37 1 1.0 4.0 0.00 0.00 0.00 68 1024.4
20220118065257 37 1 0.0 2.0 0.00 0.00 0.00 67 1024.2
20220118064357 38 1 1.0 4.0 0.00 0.00 0.00 65 1024.2
20220118063457 38 1 1.0 2.0 0.00 0.00 0.00 65 1024.0
20220118062557 39 1 2.0 4.0 0.00 0.00 0.00 65 1024.1
20220118061657 39 1 1.0 4.0 0.00 0.00 0.00 65 1024.1
20220117170807 57 186 4.0 7.0 0.00 0.00 0.00 42 1025.0
20220117165907 57 186 4.0 7.0 0.00 0.00 0.00 42 1025.0
20220117165007 57 186 4.0 7.0 0.00 0.00 0.00 42 1025.0
20220117164107 57 186 4.0 7.0 0.00 0.00 0.00 42 1025.0
20220117163206 57 186 4.0 7.0 0.00 0.00 0.00 42 1025.0
20220117162307 57 186 4.0 7.0 0.00 0.00 0.00 42 1025.0
20220117161407 57 186 4.0 7.0 0.00 0.00 0.00 42 1025.0
20220117160507 57 186 4.0 7.0 0.00 0.00 0.00 42 1025.0
20220117155606 57 186 4.0 7.0 0.00 0.00 0.00 42 1025.0
20220117154707 57 186 4.0 7.0 0.00 0.00 0.00 42 1025.0
20220117153806 57 186 4.0 7.0 0.00 0.00 0.00 42 1025.0
20220117152907 57 213 4.0 7.0 0.00 0.00 0.00 41 1025.1
20220117152007 58 215 4.0 8.0 0.00 0.00 0.00 39 1025.0
20220117151107 58 223 4.0 8.0 0.00 0.00 0.00 38 1025.2
20220117150207 58 203 4.0 7.0 0.00 0.00 0.00 40 1025.2
20220117145306 58 210 3.0 9.0 0.00 0.00 0.00 42 1025.1
20220117144406 59 220 3.0 6.0 0.00 0.00 0.00 41 1025.0
20220117143506 58 219 2.0 4.0 0.00 0.00 0.00 42 1025.0
20220117142606 59 221 2.0 7.0 0.00 0.00 0.00 41 1025.0
20220117141706 58 207 4.0 7.0 0.00 0.00 0.00 43 1025.0
20220117140806 59 253 3.0 7.0 0.00 0.00 0.00 42 1025.0
20220117135906 58 243 3.0 7.0 0.00 0.00 0.00 41 1025.0
20220117135006 59 268 3.0 8.0 0.00 0.00 0.00 40 1025.3
20220117134106 58 243 4.0 8.0 0.00 0.00 0.00 42 1025.1
20220117133206 58 195 3.0 6.0 0.00 0.00 0.00 44 1024.9
20220117132306 58 247 3.0 6.0 0.00 0.00 0.00 43 1024.9
20220117131408 60 211 2.0 4.0 0.00 0.00 0.00 41 1025.0
20220117130506 58 206 2.0 4.0 0.00 0.00 0.00 44 1024.8
20220117125606 58 238 2.0 6.0 0.00 0.00 0.00 43 1025.3
20220117124706 59 224 2.0 6.0 0.00 0.00 0.00 41 1026.0
20220117123806 57 236 3.0 6.0 0.00 0.00 0.00 43 1025.8
20220117122906 57 235 3.0 7.0 0.00 0.00 0.00 43 1025.7
20220117122006 57 246 2.0 7.0 0.00 0.00 0.00 42 1025.9
20220117121106 58 266 2.0 6.0 0.00 0.00 0.00 41 1026.2
20220117120206 57 276 1.0 6.0 0.00 0.00 0.00 42 1026.6
20220117115306 56 285 2.0 4.0 0.00 0.00 0.00 41 1027.0